Time;durP1;ratioP1;P1;durP2;ratioP2;P2;SDS_P1;SDS_P2;PMS_P1;PMS_P2;Temp;Humidity;BMP_temperature;BMP_pressure;BME280_temperature;BME280_humidity;BME280_pressure;Samples;Min_cycle;Max_cycle;Signal;HPM_P1;HPM_P2
2020/12/30 00:02:28;;;;;;;;;;;2.00;99.90;;;0.71;81.38;94053.91;10543359;28;2073;-83
2020/12/30 00:07:30;;;;;;;;;;;1.90;99.90;;;0.64;81.23;94058.63;10549551;28;1984;-83
2020/12/30 00:12:31;;;;;;;;;;;1.90;99.90;;;0.56;81.46;94064.38;10533476;28;1962;-83
2020/12/30 00:17:33;;;;;;;;;;;1.80;99.90;;;0.61;81.61;94075.78;10550930;28;1871;-83
2020/12/30 00:22:35;;;;;;;;;;;1.70;99.90;;;0.47;82.03;94062.19;10519591;28;2047;-83
2020/12/30 00:27:37;;;;;;;;;;;1.70;99.90;;;0.39;82.25;94070.59;10522748;28;1939;-84
2020/12/30 00:32:38;;;;;;;;;;;1.60;99.90;;;0.35;82.59;94074.00;10512094;28;1758;-83
2020/12/30 00:37:40;;;;;;;;;;;1.50;99.90;;;0.32;82.70;94071.84;10510299;28;2094;-82
2020/12/30 00:42:42;;;;;;;;;;;1.50;99.90;;;0.14;82.93;94086.22;10497173;28;585129;-81
2020/12/30 00:47:44;;;;;;;;;;;1.40;99.90;;;-0.03;83.29;94081.03;10514414;28;2043;-82
2020/12/30 00:52:45;;;;;;;;;;;1.20;99.90;;;-0.14;84.12;94084.59;10495489;28;1756;-81
2020/12/30 00:57:47;;;;;;;;;;;1.10;99.90;;;-0.26;84.05;94092.66;10505225;28;1585;-81
2020/12/30 01:02:52;;;;;;;;;;;1.00;99.90;;;-0.30;84.91;94094.22;10521590;28;1315;-82
2020/12/30 01:07:53;;;;;;;;;;;0.90;99.90;;;-0.38;84.97;94082.25;10518919;28;2185;-82
2020/12/30 01:12:55;;;;;;;;;;;0.90;99.90;;;-0.41;85.04;94090.66;10516207;28;2102;-81
2020/12/30 01:17:57;;;;;;;;;;;0.80;99.90;;;-0.46;85.30;94097.72;10515121;28;1516;-84
2020/12/30 01:22:59;;;;;;;;;;;0.80;99.90;;;-0.55;85.12;94106.06;10528952;28;2231;-83
2020/12/30 01:28:00;;;;;;;;;;;0.70;99.90;;;-0.65;85.37;94108.56;10490465;28;1971;-81
2020/12/30 01:33:02;;;;;;;;;;;0.60;99.90;;;-0.71;85.67;94114.81;10515761;28;2021;-84
2020/12/30 01:38:04;;;;;;;;;;;0.50;99.90;;;-0.73;85.97;94113.47;10520201;28;1926;-84
2020/12/30 01:43:06;;;;;;;;;;;0.50;99.90;;;-0.75;86.03;94110.28;10522276;28;2060;-82
2020/12/30 01:48:07;;;;;;;;;;;0.50;99.90;;;-0.79;86.25;94117.09;10505699;28;1906;-83
2020/12/30 01:53:10;;;;;;;;;;;0.40;99.90;;;-0.81;86.96;94125.25;10512616;28;2111;-83
2020/12/30 01:58:12;;;;;;;;;;;0.40;99.90;;;-0.86;87.18;94123.31;10514254;28;1851;-83
2020/12/30 02:03:13;;;;;;;;;;;0.40;99.90;;;-0.89;86.79;94131.75;10519357;28;2049;-84
2020/12/30 02:08:15;;;;;;;;;;;0.30;99.90;;;-0.90;87.37;94129.31;10510596;28;2148;-83
2020/12/30 02:13:17;;;;;;;;;;;0.30;99.90;;;-0.89;87.40;94120.38;10517262;28;1887;-82
2020/12/30 02:18:18;;;;;;;;;;;0.30;99.90;;;-0.88;87.19;94117.50;10522740;28;2031;-84
2020/12/30 02:23:20;;;;;;;;;;;0.30;99.90;;;-0.79;88.33;94125.00;10549892;28;1915;-85
2020/12/30 02:28:22;;;;;;;;;;;1.90;99.90;;;-0.69;88.21;94130.41;10512837;28;2155;-84
2020/12/30 02:33:24;;;;;;;;;;;0.40;99.90;;;-0.40;87.59;94123.91;10523481;28;1860;-82
2020/12/30 02:38:25;;;;;;;;;;;0.60;99.90;;;-0.09;85.45;94124.28;10519491;28;2110;-81
2020/12/30 02:43:27;;;;;;;;;;;0.80;99.90;;;0.03;85.00;94132.06;10510243;28;1971;-82
2020/12/30 02:48:29;;;;;;;;;;;1.00;99.90;;;0.08;84.51;94124.22;10508093;28;2189;-82
2020/12/30 02:53:31;;;;;;;;;;;1.10;99.90;;;0.14;83.46;94123.22;10505887;28;2202;-83
2020/12/30 02:58:32;;;;;;;;;;;1.20;99.90;;;0.20;83.20;94132.78;10488399;28;1754;-84
2020/12/30 03:03:34;;;;;;;;;;;1.20;99.90;;;0.35;82.69;94130.28;10512376;28;2041;-83
2020/12/30 03:08:36;;;;;;;;;;;1.30;99.90;;;0.41;82.15;94128.50;10524658;28;2034;-84
2020/12/30 03:13:38;;;;;;;;;;;1.40;99.90;;;0.48;81.92;94129.88;10503602;28;2004;-83
2020/12/30 03:18:39;;;;;;;;;;;2.50;99.90;;;0.50;82.20;94138.34;10496410;28;2021;-83
2020/12/30 03:23:41;;;;;;;;;;;1.50;99.90;;;0.52;81.85;94152.13;10521346;28;1920;-83
2020/12/30 03:28:43;;;;;;;;;;;1.60;99.90;;;0.46;81.81;94153.13;10514660;28;2029;-82
2020/12/30 03:33:44;;;;;;;;;;;2.00;99.90;;;0.44;82.08;94157.84;10508560;28;2037;-82
2020/12/30 03:38:46;;;;;;;;;;;1.50;99.90;;;0.46;81.73;94149.69;10516676;28;2061;-83
2020/12/30 03:43:48;;;;;;;;;;;1.50;99.90;;;0.49;81.64;94155.25;10524401;28;1992;-83
2020/12/30 03:48:50;;;;;;;;;;;2.30;99.90;;;0.58;81.11;94154.84;10532913;28;2207;-82
2020/12/30 03:53:52;;;;;;;;;;;1.60;99.90;;;0.60;81.21;94148.22;10501855;28;2053;-82
2020/12/30 03:58:53;;;;;;;;;;;1.60;99.90;;;0.66;81.24;94159.66;10508350;28;2135;-83
2020/12/30 04:04:00;;;;;;;;;;;1.70;99.90;;;0.66;81.13;94159.66;10532026;28;2010;-83
2020/12/30 04:09:03;;;;;;;;;;;2.90;99.90;;;0.68;81.44;94162.84;10527595;28;2059;-84
2020/12/30 04:14:05;;;;;;;;;;;1.70;99.90;;;0.74;80.96;94165.28;10510942;28;2093;-82
2020/12/30 04:19:07;;;;;;;;;;;1.70;99.90;;;0.76;81.21;94165.03;10523771;28;2003;-83
2020/12/30 04:24:09;;;;;;;;;;;1.80;99.90;;;0.80;81.00;94164.28;10507220;28;1981;-84
2020/12/30 04:29:11;;;;;;;;;;;1.90;99.90;;;0.89;80.83;94161.97;10508847;28;2217;-84
2020/12/30 04:34:13;;;;;;;;;;;2.60;99.90;;;0.97;79.84;94169.44;10497655;28;1861;-84
2020/12/30 04:39:15;;;;;;;;;;;3.00;99.90;;;0.96;79.77;94167.06;10513323;28;1984;-82
2020/12/30 04:44:17;;;;;;;;;;;2.00;99.90;;;0.96;79.97;94170.50;10502390;28;1906;-84
2020/12/30 04:49:18;;;;;;;;;;;2.40;99.90;;;0.95;80.05;94160.94;10501242;28;2089;-83
2020/12/30 04:54:21;;;;;;;;;;;2.00;99.90;;;0.94;79.74;94167.28;10500151;28;2060;-82
2020/12/30 04:59:23;;;;;;;;;;;2.80;99.90;;;0.95;80.26;94170.72;10495674;28;2103;-81
2020/12/30 05:04:24;;;;;;;;;;;2.00;99.90;;;0.92;79.93;94173.91;10532935;28;2028;-83
2020/12/30 05:09:26;;;;;;;;;;;1.90;99.90;;;0.90;80.23;94176.78;10523982;28;1425;-84
2020/12/30 05:14:28;;;;;;;;;;;1.90;99.90;;;0.90;79.78;94189.22;10533425;28;2011;-83
2020/12/30 05:19:30;;;;;;;;;;;2.00;99.90;;;0.98;80.40;94202.78;10517069;28;2011;-83
2020/12/30 05:24:31;;;;;;;;;;;1.90;99.90;;;0.96;79.63;94215.47;10534510;28;1988;-85
2020/12/30 05:29:33;;;;;;;;;;;2.00;99.90;;;0.98;79.53;94223.94;10502577;28;2019;-83
2020/12/30 05:34:35;;;;;;;;;;;2.60;99.90;;;0.99;79.51;94227.41;10522851;28;2022;-82
2020/12/30 05:39:37;;;;;;;;;;;2.10;99.90;;;0.99;78.92;94228.19;10522046;28;2019;-83
2020/12/30 05:44:39;;;;;;;;;;;2.00;99.90;;;1.05;79.39;94239.63;10502185;28;2053;-84
2020/12/30 05:49:40;;;;;;;;;;;3.10;99.90;;;1.03;79.23;94237.22;10499651;28;1996;-83
2020/12/30 05:54:42;;;;;;;;;;;2.10;99.90;;;1.07;79.57;94246.25;10498322;28;2163;-85
2020/12/30 05:59:44;;;;;;;;;;;2.10;99.90;;;1.08;79.84;94245.22;10529505;28;2183;-84
2020/12/30 06:04:45;;;;;;;;;;;2.10;99.90;;;1.07;79.79;94254.19;10515982;28;1959;-84
2020/12/30 06:09:47;;;;;;;;;;;2.10;99.90;;;1.04;80.15;94265.28;10536049;28;1553;-85
2020/12/30 06:14:49;;;;;;;;;;;3.80;99.90;;;1.10;80.93;94267.97;10532508;28;2045;-83
2020/12/30 06:19:51;;;;;;;;;;;3.10;99.90;;;1.12;80.59;94271.16;10545071;28;1346;-82
2020/12/30 06:25:01;;;;;;;;;;;2.20;99.90;;;1.18;81.04;94270.97;10546769;28;1887;-84
2020/12/30 06:30:03;;;;;;;;;;;2.20;99.90;;;1.19;81.10;94274.41;10534788;28;2343;-83
2020/12/30 06:35:05;;;;;;;;;;;3.20;99.90;;;1.22;81.53;94280.00;10534116;28;2081;-82
2020/12/30 06:40:08;;;;;;;;;;;3.20;99.90;;;1.24;81.49;94279.75;10545562;28;2446;-81
2020/12/30 06:45:10;;;;;;;;;;;2.30;99.90;;;1.27;80.90;94285.34;10517414;28;2287;-84
2020/12/30 06:50:12;;;;;;;;;;;4.30;99.90;;;1.27;81.51;94287.16;10502134;28;1726;-82
2020/12/30 06:55:14;;;;;;;;;;;2.30;99.90;;;1.24;80.84;94296.44;10521060;28;2122;-84
2020/12/30 07:00:15;;;;;;;;;;;3.20;99.90;;;1.23;80.82;94294.03;10490913;28;1904;-84
2020/12/30 07:05:17;;;;;;;;;;;3.30;99.90;;;1.24;80.93;94306.22;10505068;28;2123;-84
2020/12/30 07:10:19;;;;;;;;;;;3.20;99.90;;;1.23;81.27;94309.91;10536031;28;1933;-84
2020/12/30 07:15:21;;;;;;;;;;;2.30;99.90;;;1.22;81.25;94318.91;10546240;28;2136;-84
2020/12/30 07:20:23;;;;;;;;;;;2.30;99.90;;;1.26;80.75;94314.69;10554083;28;2086;-83
2020/12/30 07:25:24;;;;;;;;;;;2.30;99.90;;;1.20;80.18;94311.19;10523949;28;1905;-83
2020/12/30 07:30:27;;;;;;;;;;;2.30;99.90;;;1.21;79.97;94325.22;10505330;28;1849;-83
2020/12/30 07:35:28;;;;;;;;;;;2.20;99.90;;;1.23;79.88;94325.81;10515846;28;1815;-83
2020/12/30 07:40:30;;;;;;;;;;;2.30;99.90;;;1.26;79.38;94341.16;10494222;28;1855;-83
2020/12/30 07:45:32;;;;;;;;;;;3.20;99.90;;;1.36;78.66;94343.94;10523262;28;1890;-84
2020/12/30 07:50:34;;;;;;;;;;;2.30;99.90;;;1.46;77.96;94341.34;10521102;28;1550;-84
2020/12/30 07:55:35;;;;;;;;;;;2.50;99.90;;;1.54;77.11;94354.16;10529863;28;1977;-82
2020/12/30 08:00:37;;;;;;;;;;;2.60;99.90;;;1.58;76.74;94349.94;10513423;28;1619;-82
2020/12/30 08:05:39;;;;;;;;;;;3.40;99.90;;;1.76;75.60;94358.56;10491006;28;1997;-83
2020/12/30 08:10:41;;;;;;;;;;;2.70;99.90;;;1.95;74.50;94362.41;10499972;28;1983;-83
2020/12/30 08:15:42;;;;;;;;;;;2.90;99.90;;;2.27;73.74;94364.22;10521827;28;2192;-83
2020/12/30 08:20:44;;;;;;;;;;;3.10;99.90;;;2.57;72.00;94369.72;10513597;28;1994;-82
2020/12/30 08:25:46;;;;;;;;;;;3.40;99.90;;;2.68;70.03;94368.72;10522750;28;1986;-83
2020/12/30 08:30:48;;;;;;;;;;;3.60;99.90;;;2.72;70.35;94384.91;10533478;28;2338;-82
2020/12/30 08:35:50;;;;;;;;;;;3.70;99.90;;;2.88;70.38;94388.44;10496492;28;2033;-81
2020/12/30 08:40:53;;;;;;;;;;;3.80;99.90;;;3.02;69.02;94396.72;10488041;28;2006;-81
2020/12/30 08:45:54;;;;;;;;;;;3.90;99.90;;;3.15;68.09;94401.53;10507297;28;2234;-86
2020/12/30 08:50:56;;;;;;;;;;;4.10;99.90;;;3.42;67.76;94399.47;10546440;28;1938;-85
2020/12/30 08:55:58;;;;;;;;;;;5.00;99.90;;;3.58;66.94;94416.28;10555610;28;1615;-84
2020/12/30 09:01:00;;;;;;;;;;;5.20;99.90;;;3.96;64.97;94419.50;10546694;28;1215;-83
2020/12/30 09:06:02;;;;;;;;;;;4.70;99.90;;;4.33;63.83;94414.72;10545281;28;1977;-82
2020/12/30 09:11:03;;;;;;;;;;;4.90;99.90;;;4.58;61.92;94421.06;10548893;28;2229;-83
2020/12/30 09:16:05;;;;;;;;;;;6.50;99.30;;;4.73;60.60;94413.06;10507017;28;2086;-84
2020/12/30 09:21:07;;;;;;;;;;;5.60;96.20;;;4.34;62.14;94408.34;10523421;28;2002;-83
2020/12/30 09:31:49;;;;;;;;;;;6.70;95.40;;;4.44;62.70;94417.38;10522174;28;1820;-83
2020/12/30 09:36:54;;;;;;;;;;;6.90;94.90;;;4.44;61.61;94415.50;10505026;28;1900;-83
2020/12/30 09:41:56;;;;;;;;;;;6.70;93.60;;;4.55;62.54;94416.28;10538519;28;1572;-84
2020/12/30 09:46:59;;;;;;;;;;;5.50;93.60;;;4.41;61.81;94424.03;10530078;28;1991;-84
2020/12/30 09:52:10;;;;;;;;;;;5.30;92.20;;;4.23;62.59;94427.22;10527190;28;1893;-85
2020/12/30 09:57:34;;;;;;;;;;;6.10;92.80;;;4.43;62.67;94421.09;10493801;28;1648;-83
2020/12/30 10:02:48;;;;;;;;;;;5.20;93.10;;;4.61;63.01;94416.00;10519886;28;2084;-82
2020/12/30 10:07:52;;;;;;;;;;;5.90;93.10;;;4.79;61.19;94404.00;10519037;28;1902;-83
2020/12/30 10:13:15;;;;;;;;;;;7.00;92.70;;;4.76;60.96;94411.72;10523289;28;1943;-87
2020/12/30 10:19:18;;;;;;;;;;;6.50;91.20;;;4.58;60.86;94405.09;10380740;28;2018;-85
2020/12/30 10:24:26;;;;;;;;;;;7.00;90.50;;;4.46;60.68;94401.94;10420854;28;1919;-84
2020/12/30 10:29:30;;;;;;;;;;;5.60;89.20;;;4.46;61.83;94399.28;10522173;28;1623;-84
2020/12/30 10:34:33;;;;;;;;;;;5.60;90.50;;;4.69;61.45;94400.56;10530145;28;2092;-86
2020/12/30 10:39:35;;;;;;;;;;;5.60;90.30;;;4.83;60.69;94406.91;10532981;28;1900;-85
2020/12/30 10:44:37;;;;;;;;;;;6.90;90.60;;;5.08;59.97;94409.50;10511349;28;1906;-84
2020/12/30 10:49:41;;;;;;;;;;;7.00;89.70;;;5.42;59.81;94404.28;10518289;28;2034;-84
2020/12/30 10:54:43;;;;;;;;;;;6.20;88.70;;;5.68;58.61;94404.94;10526302;28;2057;-83
2020/12/30 10:59:49;;;;;;;;;;;7.20;88.10;;;5.66;57.29;94407.09;10506785;28;1769;-84
2020/12/30 11:04:51;;;;;;;;;;;6.70;85.90;;;5.74;58.07;94408.38;10507099;28;1996;-85
2020/12/30 11:09:56;;;;;;;;;;;7.50;86.30;;;5.86;57.15;94414.19;10508730;28;2052;-85
2020/12/30 11:14:59;;;;;;;;;;;8.10;86.30;;;5.70;58.96;94413.47;10516783;28;2078;-85
2020/12/30 11:20:01;;;;;;;;;;;7.30;86.30;;;5.81;58.13;94416.88;10510476;28;1809;-85
2020/12/30 11:25:06;;;;;;;;;;;8.00;85.80;;;5.82;58.66;94413.13;10524109;28;1891;-87
2020/12/30 11:30:24;;;;;;;;;;;7.30;86.30;;;5.67;58.32;94413.22;10514223;28;1857;-85
2020/12/30 11:35:44;;;;;;;;;;;8.00;86.10;;;5.68;58.55;94396.94;10511054;28;2107;-84
2020/12/30 11:40:51;;;;;;;;;;;6.80;85.20;;;5.87;57.61;94397.09;10531317;28;1853;-85
2020/12/30 11:46:00;;;;;;;;;;;6.90;84.70;;;5.77;57.36;94410.47;10524765;28;2062;-85
2020/12/30 11:51:02;;;;;;;;;;;7.80;84.60;;;5.78;57.48;94411.28;10509852;28;1978;-85
2020/12/30 11:56:04;;;;;;;;;;;7.70;84.80;;;5.73;58.26;94412.13;10503250;28;1967;-84
2020/12/30 12:01:07;;;;;;;;;;;7.90;85.10;;;5.75;58.26;94407.31;10528627;28;1944;-85
2020/12/30 12:06:08;;;;;;;;;;;6.80;84.40;;;5.68;58.49;94412.94;10537001;28;1994;-85
2020/12/30 12:11:10;;;;;;;;;;;7.10;84.80;;;5.59;58.27;94413.78;10531156;28;1863;-84
2020/12/30 12:16:12;;;;;;;;;;;6.70;84.30;;;5.63;58.32;94428.16;10519571;28;1904;-85
2020/12/30 12:21:14;;;;;;;;;;;6.60;84.10;;;5.25;58.00;94425.16;10530333;28;2172;-85
2020/12/30 12:26:16;;;;;;;;;;;6.40;83.30;;;5.20;58.90;94421.69;10564240;28;1886;-85
2020/12/30 12:31:17;;;;;;;;;;;6.20;83.90;;;5.08;59.26;94427.34;10525211;28;1798;-86
2020/12/30 12:36:20;;;;;;;;;;;7.80;85.10;;;5.13;59.45;94433.44;10495954;28;2003;-86
2020/12/30 12:41:22;;;;;;;;;;;6.40;85.10;;;5.10;59.30;94436.66;10499351;28;1990;-85
2020/12/30 12:46:23;;;;;;;;;;;7.00;85.10;;;5.27;59.33;94438.97;10512733;28;2022;-84
2020/12/30 12:51:25;;;;;;;;;;;6.20;84.90;;;5.24;59.83;94438.75;10511235;28;1872;-86
2020/12/30 12:56:27;;;;;;;;;;;6.60;85.50;;;5.39;58.88;94442.13;10512930;28;2122;-84
2020/12/30 13:01:29;;;;;;;;;;;6.30;85.00;;;5.41;59.19;94448.00;10532610;28;1906;-85
2020/12/30 13:06:31;;;;;;;;;;;7.10;85.20;;;5.40;59.68;94457.03;10554875;28;1983;-86
2020/12/30 13:11:33;;;;;;;;;;;7.40;85.70;;;5.34;59.80;94460.84;10524162;28;1930;-86
2020/12/30 13:16:35;;;;;;;;;;;7.20;85.80;;;5.29;60.28;94468.03;10528685;28;1983;-85
2020/12/30 13:21:37;;;;;;;;;;;6.40;85.70;;;5.38;59.80;94475.19;10529901;28;2014;-86
2020/12/30 13:26:38;;;;;;;;;;;8.00;86.50;;;5.28;60.64;94477.91;10544449;28;1919;-85
2020/12/30 13:31:40;;;;;;;;;;;7.60;86.40;;;5.12;60.87;94492.31;10540798;28;2033;-85
2020/12/30 13:36:42;;;;;;;;;;;6.40;85.70;;;5.14;61.42;94493.63;10522195;28;1971;-84
2020/12/30 13:41:44;;;;;;;;;;;6.20;86.10;;;5.03;61.23;94493.97;10539246;28;2114;-84
2020/12/30 13:46:45;;;;;;;;;;;6.10;85.70;;;5.10;60.78;94492.59;10521272;28;1935;-84
2020/12/30 13:51:47;;;;;;;;;;;6.10;85.70;;;5.20;60.82;94502.41;10529147;28;2032;-85
2020/12/30 13:56:49;;;;;;;;;;;6.20;86.10;;;5.01;61.14;94501.41;10509557;28;1978;-85
2020/12/30 14:01:51;;;;;;;;;;;6.20;85.90;;;4.81;61.97;94505.69;10509002;28;2287;-83
2020/12/30 14:13:15;;;;;;;;;;;6.90;86.90;;;4.97;61.29;94508.34;10479433;28;2125;-82
2020/12/30 14:18:43;;;;;;;;;;;6.00;86.40;;;4.99;61.51;94516.84;10528952;28;1350;-82
2020/12/30 14:23:49;;;;;;;;;;;7.40;87.40;;;4.99;62.06;94516.84;10511610;28;1746;-83
2020/12/30 14:28:52;;;;;;;;;;;6.00;86.80;;;5.10;62.20;94515.78;10529481;28;1914;-84
2020/12/30 14:34:25;;;;;;;;;;;;;;;;;;;;;
2020/12/30 14:39:52;;;;;;;;;;;6.10;88.00;;;4.82;63.29;94522.47;10517650;28;2041;-83
2020/12/30 14:44:54;;;;;;;;;;;6.00;87.80;;;4.61;63.55;94527.00;10523535;28;1988;-84
2020/12/30 14:49:56;;;;;;;;;;;6.20;88.30;;;4.31;64.26;94538.41;10497434;28;1839;-83
2020/12/30 14:54:57;;;;;;;;;;;5.60;88.10;;;4.02;65.37;94538.13;10512604;28;1874;-83
2020/12/30 14:59:59;;;;;;;;;;;6.00;89.20;;;3.75;66.11;94538.28;10523953;28;1859;-83
2020/12/30 15:05:01;;;;;;;;;;;5.90;90.30;;;3.51;67.09;94553.88;10525160;28;1951;-83
2020/12/30 15:10:03;;;;;;;;;;;5.40;90.50;;;3.30;67.28;94557.47;10547382;28;1814;-82
2020/12/30 15:15:06;;;;;;;;;;;5.80;91.60;;;3.12;68.23;94561.38;10554188;28;2017;-83
2020/12/30 15:20:08;;;;;;;;;;;4.40;91.90;;;2.99;69.16;94565.28;10569505;28;1363;-84
2020/12/30 15:25:09;;;;;;;;;;;6.10;93.50;;;2.91;69.05;94576.34;10580213;28;1948;-86
2020/12/30 15:30:11;;;;;;;;;;;4.10;92.80;;;2.84;69.15;94576.56;10569336;28;1591;-83
2020/12/30 15:35:13;;;;;;;;;;;4.30;93.30;;;2.79;68.95;94586.34;10525012;28;1811;-84
2020/12/30 15:40:17;;;;;;;;;;;4.20;93.40;;;2.70;69.75;94591.31;10550623;28;1606;-84
2020/12/30 15:45:28;;;;;;;;;;;4.80;94.10;;;2.55;69.65;94602.63;10540576;28;1890;-84
2020/12/30 15:50:38;;;;;;;;;;;3.70;94.10;;;2.41;71.25;94606.72;10507481;28;1990;-84
2020/12/30 15:55:41;;;;;;;;;;;3.60;94.70;;;2.32;71.33;94610.88;10627796;22;2076;-83
2020/12/30 16:00:43;;;;;;;;;;;3.50;95.40;;;2.26;71.79;94622.47;10539272;28;1948;-82
2020/12/30 16:05:49;;;;;;;;;;;3.40;95.70;;;2.32;71.33;94621.47;10543631;28;1886;-84
2020/12/30 16:10:54;;;;;;;;;;;5.20;97.10;;;2.51;71.03;94628.03;10537273;28;1856;-86
2020/12/30 16:16:03;;;;;;;;;;;5.30;97.40;;;2.57;71.26;94629.69;10541218;28;1716;-82
2020/12/30 16:21:07;;;;;;;;;;;3.60;96.60;;;2.64;70.85;94638.25;10546534;28;1722;-84
2020/12/30 16:26:12;;;;;;;;;;;4.50;97.10;;;2.69;71.21;94643.59;10541265;28;2012;-84
2020/12/30 16:31:25;;;;;;;;;;;3.70;96.40;;;2.75;70.64;94651.63;10516467;28;1940;-84
2020/12/30 16:36:29;;;;;;;;;;;3.80;96.30;;;2.82;70.83;94646.91;10519812;28;2059;-83
2020/12/30 16:41:37;;;;;;;;;;;5.40;96.80;;;2.84;70.27;94663.34;10522618;28;1987;-84
2020/12/30 16:46:42;;;;;;;;;;;4.20;96.30;;;2.80;70.26;94664.91;10533412;28;1980;-83
2020/12/30 16:51:47;;;;;;;;;;;3.80;95.70;;;2.76;70.30;94661.16;10541720;28;1644;-82
2020/12/30 16:56:49;;;;;;;;;;;4.80;96.10;;;2.69;70.43;94667.47;10554137;28;1879;-84
2020/12/30 17:01:53;;;;;;;;;;;3.80;96.00;;;2.63;70.98;94673.78;10551379;28;2037;-82
2020/12/30 17:06:58;;;;;;;;;;;4.30;96.30;;;2.56;70.71;94667.88;10537077;28;1909;-84
2020/12/30 17:12:00;;;;;;;;;;;3.70;96.00;;;2.53;70.40;94673.66;10534290;28;1719;-82
2020/12/30 17:17:15;;;;;;;;;;;3.60;96.30;;;2.49;70.92;94680.53;10532735;28;1461;-83
2020/12/30 17:22:19;;;;;;;;;;;3.70;96.60;;;2.44;72.43;94688.44;10542736;28;1507;-83
2020/12/30 17:27:25;;;;;;;;;;;3.50;97.40;;;2.43;71.51;94686.84;10539053;28;1902;-83
2020/12/30 17:32:31;;;;;;;;;;;4.90;98.10;;;2.37;71.53;94693.16;10540196;28;1303;-85
2020/12/30 17:37:36;;;;;;;;;;;4.10;97.50;;;2.26;71.89;94702.03;10520778;28;1592;-82
2020/12/30 17:42:38;;;;;;;;;;;3.90;97.90;;;2.10;71.53;94701.03;10549766;28;1420;-83
2020/12/30 17:47:42;;;;;;;;;;;4.70;98.20;;;2.02;72.03;94707.56;10529684;28;2016;-83
2020/12/30 17:52:46;;;;;;;;;;;5.30;99.00;;;1.84;72.64;94718.44;10516064;28;1280;-80
2020/12/30 17:57:47;;;;;;;;;;;5.10;99.30;;;1.75;73.86;94730.53;10537305;28;1869;-82
2020/12/30 18:02:50;;;;;;;;;;;3.00;98.80;;;1.63;74.65;94739.38;10542621;28;1296;-82
2020/12/30 18:07:56;;;;;;;;;;;2.90;99.70;;;1.50;74.65;94754.78;10552424;28;1875;-83
2020/12/30 18:13:07;;;;;;;;;;;2.70;99.70;;;1.39;74.64;94753.81;10544826;28;1588;-81
2020/12/30 18:18:11;;;;;;;;;;;4.10;99.90;;;1.35;74.76;94760.66;10562482;28;1393;-83
2020/12/30 18:23:13;;;;;;;;;;;2.50;99.90;;;1.33;76.18;94762.72;10535939;28;1469;-83
2020/12/30 18:28:20;;;;;;;;;;;2.50;99.90;;;1.38;77.19;94762.00;10534090;28;1939;-83
2020/12/30 18:33:27;;;;;;;;;;;3.70;99.90;;;1.35;76.93;94768.59;10539321;28;1775;-83
2020/12/30 18:38:35;;;;;;;;;;;2.40;99.90;;;1.57;76.46;94772.13;10532965;28;1534;-83
2020/12/30 18:43:43;;;;;;;;;;;3.70;99.90;;;1.69;75.75;94769.38;10526031;28;1272;-82
2020/12/30 18:48:45;;;;;;;;;;;2.70;99.90;;;1.74;75.41;94774.78;10541945;28;1951;-83
2020/12/30 18:53:50;;;;;;;;;;;3.90;99.90;;;1.75;74.38;94772.91;10524175;28;1260;-81
2020/12/30 18:58:53;;;;;;;;;;;2.80;99.90;;;1.73;74.31;94775.03;10517325;28;1528;-82
2020/12/30 19:03:55;;;;;;;;;;;2.80;99.90;;;1.78;73.73;94773.25;10527252;28;1348;-82
2020/12/30 19:14:48;;;;;;;;;;;2.90;99.90;;;1.78;73.84;94786.50;10515972;28;1521;-82
2020/12/30 19:20:30;;;;;;;;;;;2.90;99.90;;;1.85;73.17;94788.97;10516137;28;1411;-82
2020/12/30 19:25:53;;;;;;;;;;;2.90;99.90;;;1.84;73.76;94792.66;10533111;28;1894;-83
2020/12/30 19:36:30;;;;;;;;;;;4.40;99.90;;;1.73;73.76;94810.25;10524843;28;1537;-81
2020/12/30 19:41:41;;;;;;;;;;;4.10;99.90;;;1.68;73.96;94806.72;10520061;28;1632;-82
2020/12/30 19:46:47;;;;;;;;;;;4.30;99.90;;;1.66;73.77;94806.97;10525227;28;1944;-82
2020/12/30 19:51:57;;;;;;;;;;;3.80;99.90;;;1.65;74.12;94813.28;10517295;28;1587;-82
2020/12/30 19:56:59;;;;;;;;;;;4.70;99.90;;;1.64;73.97;94814.34;10522487;28;1221;-82
2020/12/30 20:02:03;;;;;;;;;;;2.70;99.90;;;1.66;74.10;94816.78;10545161;28;1636;-81
2020/12/30 20:07:06;;;;;;;;;;;4.20;99.90;;;1.64;73.81;94817.00;10517951;28;1910;-82
2020/12/30 20:12:11;;;;;;;;;;;2.90;99.90;;;1.57;73.44;94811.84;10517359;28;1164;-84
2020/12/30 20:17:13;;;;;;;;;;;3.70;99.90;;;1.50;73.52;94819.16;10527791;28;1609;-83
2020/12/30 20:22:30;;;;;;;;;;;2.60;99.90;;;1.51;73.10;94817.31;10543980;28;1965;-82
2020/12/30 20:27:32;;;;;;;;;;;2.50;99.90;;;1.51;73.54;94818.13;10523652;28;1969;-81
2020/12/30 20:32:34;;;;;;;;;;;2.60;99.90;;;1.57;72.67;94822.44;10545915;28;1577;-82
2020/12/30 20:37:36;;;;;;;;;;;4.40;99.90;;;1.60;72.57;94818.53;10528682;28;1490;-82
2020/12/30 20:42:40;;;;;;;;;;;2.80;99.90;;;1.61;72.45;94823.59;10515809;28;1560;-83
2020/12/30 20:47:42;;;;;;;;;;;4.60;99.90;;;1.65;72.42;94823.09;10517388;28;1890;-84
2020/12/30 20:52:45;;;;;;;;;;;4.10;99.90;;;1.67;72.07;94821.03;10510688;28;1637;-83
2020/12/30 20:57:47;;;;;;;;;;;4.30;99.90;;;1.74;72.03;94824.31;10510863;28;1354;-81
2020/12/30 21:02:49;;;;;;;;;;;2.70;99.90;;;1.77;72.12;94823.81;10521309;28;1566;-83
2020/12/30 21:13:37;;;;;;;;;;;2.90;99.90;;;1.86;71.75;94827.69;10510721;28;3127;-81
2020/12/30 21:19:03;;;;;;;;;;;3.80;99.90;;;1.88;71.84;94830.88;10550689;28;1787;-82
2020/12/30 21:30:14;;;;;;;;;;;3.40;99.90;;;1.89;71.95;94829.84;10549228;28;2001;-81
2020/12/30 21:46:38;;;;;;;;;;;4.40;99.90;;;1.90;71.69;94847.34;10450225;28;3367;-82
2020/12/30 21:52:12;;;;;;;;;;;3.60;99.90;;;1.95;71.42;94846.63;10492386;28;1997;-83
2020/12/30 22:03:26;;;;;;;;;;;3.80;99.80;;;1.99;70.93;94864.44;10413910;28;1937;-83
2020/12/30 22:15:11;;;;;;;;;;;3.10;99.40;;;2.03;71.14;94860.25;10443437;28;2210;-81
2020/12/30 22:20:55;;;;;;;;;;;;;;;;;;;;;
2020/12/30 22:26:34;;;;;;;;;;;3.10;99.10;;;2.03;71.07;94870.84;10516419;28;2090;-81
2020/12/30 23:08:09;;;;;;;;;;;;;;;;;;;;;
2020/12/30 23:19:09;;;;;;;;;;;;;;;;;;;;;
2020/12/30 23:24:29;;;;;;;;;;;2.80;99.80;;;1.42;73.59;94859.28;10540044;28;2084;-83
2020/12/30 23:29:59;;;;;;;;;;;3.20;99.90;;;1.24;74.28;94859.50;10525770;28;1965;-84
2020/12/30 23:35:27;;;;;;;;;;;3.60;99.90;;;1.14;74.79;94857.44;10508798;28;1824;-83
2020/12/30 23:46:45;;;;;;;;;;;2.20;99.90;;;1.17;75.04;94858.84;10505481;28;1961;-81
2020/12/30 23:57:40;;;;;;;;;;;2.10;99.90;;;1.02;75.21;94873.41;10530613;28;1942;-82
